Time;durP1;ratioP1;P1;durP2;ratioP2;P2;SDS_P1;SDS_P2;PMS_P1;PMS_P2;Temp;Humidity;BMP_temperature;BMP_pressure;BME280_temperature;BME280_humidity;BME280_pressure;Samples;Min_cycle;Max_cycle;Signal;HPM_P1;HPM_P2
2022/12/13 00:01:49;;;;;;;19.90;14.13;;;1.60;54.20;;;;;;5023157;28;20197;-49
2022/12/13 00:04:15;;;;;;;28.40;16.43;;;1.50;54.30;;;;;;5028788;28;20205;-52
2022/12/13 00:06:42;;;;;;;23.53;15.63;;;1.60;54.30;;;;;;5024855;28;20482;-49
2022/12/13 00:09:07;;;;;;;30.67;16.40;;;1.70;54.00;;;;;;5022775;28;21252;-50
2022/12/13 00:11:33;;;;;;;21.90;14.70;;;1.80;53.60;;;;;;5028802;28;20446;-48
2022/12/13 00:13:59;;;;;;;26.47;15.73;;;1.80;53.30;;;;;;5027286;28;20197;-48
2022/12/13 00:16:25;;;;;;;24.20;15.67;;;1.80;53.20;;;;;;5028711;28;20450;-52
2022/12/13 00:18:54;;;;;;;23.30;15.33;;;1.80;53.10;;;;;;5026657;28;20197;-50
2022/12/13 00:21:21;;;;;;;24.47;15.60;;;1.80;53.20;;;;;;5025686;28;20448;-53
2022/12/13 00:23:46;;;;;;;23.00;15.30;;;1.80;53.00;;;;;;5022351;28;20444;-51
2022/12/13 00:26:14;;;;;;;24.07;14.20;;;1.90;52.70;;;;;;5025970;28;20452;-51
2022/12/13 00:28:41;;;;;;;28.40;15.80;;;1.80;52.40;;;;;;5030434;28;20200;-53
2022/12/13 00:31:07;;;;;;;23.03;15.87;;;1.80;52.70;;;;;;5009093;28;20726;-54
2022/12/13 00:33:33;;;;;;;23.90;16.40;;;1.80;52.60;;;;;;5031601;28;20569;-52
2022/12/13 00:36:09;;;;;;;28.70;15.73;;;1.80;52.50;;;;;;5031482;28;20468;-54
2022/12/13 00:38:35;;;;;;;25.17;15.80;;;1.90;52.40;;;;;;5025595;28;20214;-55
2022/12/13 00:41:18;;;;;;;28.50;15.97;;;1.90;52.40;;;;;;5024535;28;20452;-56
2022/12/13 00:43:44;;;;;;;23.27;15.90;;;1.90;52.20;;;;;;5026417;28;20448;-47
2022/12/13 00:46:15;;;;;;;26.77;15.27;;;2.00;52.10;;;;;;5026800;28;20448;-56
2022/12/13 00:48:42;;;;;;;25.17;15.87;;;2.00;52.00;;;;;;5027970;28;20471;-51
2022/12/13 00:51:12;;;;;;;28.47;14.47;;;1.90;51.70;;;;;;5025989;28;20927;-55
2022/12/13 00:53:40;;;;;;;25.13;15.60;;;2.00;51.80;;;;;;5029479;28;20487;-54
2022/12/13 00:56:20;;;;;;;27.33;15.53;;;2.00;51.70;;;;;;5024572;28;20531;-55
2022/12/13 00:59:12;;;;;;;25.83;15.70;;;2.00;51.50;;;;;;5026671;28;20467;-55
2022/12/13 01:01:39;;;;;;;21.93;13.77;;;2.00;51.40;;;;;;5025397;28;20995;-54
2022/12/13 01:04:09;;;;;;;25.03;15.00;;;2.00;51.20;;;;;;5027678;28;20476;-52
2022/12/13 01:06:38;;;;;;;26.00;16.30;;;2.00;51.00;;;;;;5026971;28;20602;-53
2022/12/13 01:09:13;;;;;;;26.47;15.87;;;2.00;51.70;;;;;;5028172;28;20535;-54
2022/12/13 01:11:38;;;;;;;23.53;15.33;;;2.00;51.10;;;;;;5030111;28;20494;-55
2022/12/13 01:14:04;;;;;;;29.00;16.40;;;1.90;51.00;;;;;;5026589;28;20721;-52
2022/12/13 01:16:30;;;;;;;28.63;14.83;;;1.90;51.20;;;;;;5024986;28;20197;-49
2022/12/13 01:18:57;;;;;;;25.63;15.20;;;1.90;51.30;;;;;;5022411;28;20235;-50
2022/12/13 01:21:22;;;;;;;23.07;14.07;;;1.80;51.20;;;;;;5026073;28;20185;-50
2022/12/13 01:23:48;;;;;;;22.90;14.30;;;1.80;51.30;;;;;;5020989;28;20460;-53
2022/12/13 01:26:16;;;;;;;24.23;15.43;;;1.90;51.20;;;;;;5018727;28;20238;-52
2022/12/13 01:28:42;;;;;;;26.80;15.20;;;1.80;51.10;;;;;;5018707;28;20221;-48
2022/12/13 01:31:12;;;;;;;22.07;15.10;;;1.80;51.10;;;;;;5024563;28;20931;-50
2022/12/13 01:33:38;;;;;;;27.83;15.60;;;1.80;51.10;;;;;;5027602;28;20892;-51
2022/12/13 01:36:07;;;;;;;23.70;16.27;;;1.80;51.00;;;;;;5025452;28;20765;-54
2022/12/13 01:38:34;;;;;;;21.30;14.87;;;1.60;50.80;;;;;;5026510;28;20941;-51
2022/12/13 01:40:59;;;;;;;28.50;16.10;;;1.50;51.30;;;;;;5023250;28;20446;-51
2022/12/13 01:43:50;;;;;;;24.17;15.97;;;1.60;51.60;;;;;;5021724;28;20437;-52
2022/12/13 01:46:17;;;;;;;21.00;13.90;;;1.60;51.60;;;;;;5023010;28;20239;-52
2022/12/13 01:49:07;;;;;;;26.20;15.10;;;1.60;51.50;;;;;;5023261;28;20440;-49
2022/12/13 01:51:38;;;;;;;21.00;13.60;;;1.70;51.20;;;;;;5022038;28;20505;-49
2022/12/13 01:54:07;;;;;;;24.50;14.10;;;1.60;51.00;;;;;;5026847;28;20524;-52
2022/12/13 01:56:43;;;;;;;25.63;15.27;;;1.60;50.90;;;;;;5021971;28;20976;-51
2022/12/13 01:59:11;;;;;;;25.37;14.80;;;1.60;51.20;;;;;;5026252;28;20451;-49
2022/12/13 02:01:37;;;;;;;18.30;12.93;;;1.50;51.10;;;;;;5016800;28;20503;-53
2022/12/13 02:04:03;;;;;;;25.07;14.77;;;1.50;51.20;;;;;;5025865;28;20448;-53
2022/12/13 02:06:44;;;;;;;22.27;13.27;;;1.50;51.00;;;;;;5024831;28;20431;-49
2022/12/13 02:09:12;;;;;;;26.10;15.67;;;1.50;51.00;;;;;;5026704;28;20197;-52
2022/12/13 02:11:40;;;;;;;24.27;14.17;;;1.50;50.90;;;;;;5026890;28;20431;-50
2022/12/13 02:14:05;;;;;;;28.47;14.30;;;1.50;50.80;;;;;;5026302;28;20490;-51
2022/12/13 02:16:37;;;;;;;24.60;14.20;;;1.60;50.70;;;;;;5016014;28;20813;-51
2022/12/13 02:19:03;;;;;;;23.40;14.27;;;1.50;50.60;;;;;;5025380;28;20243;-52
2022/12/13 02:21:47;;;;;;;29.63;15.23;;;1.50;50.60;;;;;;5025938;28;20448;-49
2022/12/13 02:24:56;;;;;;;20.70;13.87;;;1.40;50.80;;;;;;5022952;28;20287;-54
2022/12/13 02:27:33;;;;;;;26.43;15.70;;;1.40;50.80;;;;;;5022052;28;20440;-51
2022/12/13 02:30:26;;;;;;;23.37;14.93;;;1.40;50.80;;;;;;5020785;28;20444;-51
2022/12/13 02:33:03;;;;;;;22.63;13.30;;;1.30;50.80;;;;;;5020964;28;20487;-48
2022/12/13 02:36:19;;;;;;;19.57;13.30;;;1.30;50.70;;;;;;5028427;28;20439;-50
2022/12/13 02:38:52;;;;;;;24.50;14.80;;;1.20;50.70;;;;;;5002437;28;20463;-49
2022/12/13 02:41:38;;;;;;;20.80;13.37;;;1.30;50.80;;;;;;5026114;28;20444;-52
2022/12/13 02:44:19;;;;;;;22.40;13.63;;;1.20;50.40;;;;;;5027644;28;20444;-54
2022/12/13 02:46:51;;;;;;;25.50;14.37;;;1.20;50.30;;;;;;5017348;28;20436;-54
2022/12/13 02:49:18;;;;;;;24.87;13.93;;;1.10;50.30;;;;;;5022087;28;20477;-52
2022/12/13 02:51:45;;;;;;;24.97;14.30;;;1.10;50.60;;;;;;5023996;28;20462;-52
2022/12/13 02:54:11;;;;;;;25.77;14.47;;;1.10;50.70;;;;;;5025568;28;20472;-53
2022/12/13 02:56:37;;;;;;;22.50;14.40;;;1.10;50.80;;;;;;5025559;28;20558;-53
2022/12/13 02:59:11;;;;;;;22.77;13.50;;;1.10;51.00;;;;;;5028417;28;20542;-53
2022/12/13 03:02:05;;;;;;;22.00;14.80;;;1.10;51.00;;;;;;5027038;28;20197;-53
2022/12/13 03:07:55;;;;;;;23.87;14.00;;;0.90;51.40;;;;;;5027551;28;20531;-50
2022/12/13 03:10:32;;;;;;;23.50;15.23;;;1.00;51.50;;;;;;5026160;28;20444;-53
2022/12/13 03:16:02;;;;;;;25.60;14.77;;;1.10;51.30;;;;;;5028036;28;20455;-52
2022/12/13 03:18:31;;;;;;;27.40;14.17;;;1.10;51.20;;;;;;5025351;28;20447;-50
2022/12/13 03:21:00;;;;;;;22.70;14.17;;;1.10;51.00;;;;;;5024287;28;20482;-48
2022/12/13 03:23:26;;;;;;;22.73;13.80;;;1.10;50.80;;;;;;5023937;28;20459;-49
2022/12/13 03:25:57;;;;;;;25.37;14.33;;;1.10;50.80;;;;;;5023830;28;20435;-49
2022/12/13 03:28:23;;;;;;;25.03;14.17;;;1.10;50.90;;;;;;5026677;28;20452;-50
2022/12/13 03:30:48;;;;;;;23.40;13.63;;;1.20;50.90;;;;;;5028759;28;20947;-48
2022/12/13 03:33:14;;;;;;;23.00;15.70;;;1.10;50.60;;;;;;5027541;28;20225;-48
2022/12/13 03:35:41;;;;;;;21.80;14.30;;;1.20;50.60;;;;;;5030030;28;20763;-48
2022/12/13 03:38:07;;;;;;;22.37;13.57;;;1.20;50.50;;;;;;5018879;28;20209;-49
2022/12/13 03:40:33;;;;;;;22.30;14.70;;;1.20;50.50;;;;;;5015649;28;20435;-48
2022/12/13 03:43:00;;;;;;;21.13;13.90;;;1.10;50.50;;;;;;5032198;28;20451;-49
2022/12/13 03:45:26;;;;;;;26.03;14.63;;;1.10;50.50;;;;;;5029789;28;20455;-49
2022/12/13 03:47:51;;;;;;;23.37;12.83;;;1.20;50.70;;;;;;5028743;28;20455;-52
2022/12/13 03:50:17;;;;;;;28.80;14.83;;;1.20;50.80;;;;;;5031061;28;20269;-52
2022/12/13 03:52:43;;;;;;;25.40;13.93;;;1.10;50.50;;;;;;5028934;28;20225;-49
2022/12/13 03:55:11;;;;;;;19.40;12.90;;;1.10;50.70;;;;;;5030876;28;20229;-52
2022/12/13 03:57:36;;;;;;;20.63;14.10;;;1.10;50.80;;;;;;5031531;28;20324;-48
2022/12/13 04:00:03;;;;;;;25.00;13.50;;;1.10;50.60;;;;;;5030108;28;20554;-48
2022/12/13 04:02:28;;;;;;;23.43;14.00;;;1.10;50.60;;;;;;5027913;28;20525;-49
2022/12/13 04:04:54;;;;;;;21.30;12.80;;;1.10;50.50;;;;;;5027302;28;20551;-50
2022/12/13 04:07:19;;;;;;;24.90;14.50;;;1.10;50.50;;;;;;5030582;28;20567;-49
2022/12/13 04:09:45;;;;;;;21.20;13.70;;;1.10;50.40;;;;;;5028630;28;20201;-49
2022/12/13 04:14:55;;;;;;;24.03;14.37;;;1.00;50.50;;;;;;5023810;28;20620;-50
2022/12/13 04:17:20;;;;;;;22.73;14.10;;;1.10;50.40;;;;;;5026133;28;20488;-48
2022/12/13 04:19:46;;;;;;;26.37;13.63;;;1.10;50.30;;;;;;5028330;28;20858;-49
2022/12/13 04:22:11;;;;;;;18.63;11.77;;;1.20;50.20;;;;;;5024604;28;20271;-51
2022/12/13 04:24:37;;;;;;;22.93;13.70;;;1.20;50.10;;;;;;5022268;28;20224;-51
2022/12/13 04:27:03;;;;;;;20.20;13.37;;;1.20;50.10;;;;;;5022879;28;20194;-50
2022/12/13 04:29:29;;;;;;;25.27;15.10;;;1.10;50.00;;;;;;5032310;28;20202;-51
2022/12/13 04:31:55;;;;;;;21.93;13.53;;;1.10;50.10;;;;;;5027078;28;20205;-53
2022/12/13 04:34:20;;;;;;;22.47;14.30;;;1.10;50.00;;;;;;5007521;28;20458;-50
2022/12/13 04:36:46;;;;;;;20.27;12.60;;;1.00;50.10;;;;;;5030828;28;20202;-50
2022/12/13 04:39:12;;;;;;;20.57;13.73;;;1.00;50.30;;;;;;5028217;28;20676;-51
2022/12/13 04:41:39;;;;;;;23.60;14.80;;;0.90;50.40;;;;;;5028848;28;21082;-54
2022/12/13 04:44:07;;;;;;;23.60;14.47;;;0.80;50.50;;;;;;5025741;28;20616;-49
2022/12/13 04:46:33;;;;;;;19.47;12.23;;;0.90;50.70;;;;;;5024412;28;21409;-50
2022/12/13 04:48:59;;;;;;;19.60;13.40;;;0.80;50.50;;;;;;5024351;28;20542;-52
2022/12/13 04:51:25;;;;;;;22.20;13.97;;;0.80;50.80;;;;;;5027184;28;21014;-48
2022/12/13 04:53:51;;;;;;;23.27;14.60;;;0.80;50.80;;;;;;5029493;28;20586;-49
2022/12/13 04:56:17;;;;;;;24.17;12.93;;;0.90;51.00;;;;;;5025327;28;20201;-53
2022/12/13 04:58:43;;;;;;;23.27;14.17;;;0.90;51.10;;;;;;5025098;28;20919;-49
2022/12/13 05:01:10;;;;;;;21.33;13.73;;;0.90;51.10;;;;;;5026292;28;20505;-53
2022/12/13 05:03:36;;;;;;;23.17;13.60;;;0.90;51.00;;;;;;5021092;28;20468;-52
2022/12/13 05:06:10;;;;;;;24.90;14.07;;;0.80;50.60;;;;;;5029118;28;20813;-52
2022/12/13 05:08:37;;;;;;;24.60;13.30;;;0.80;50.40;;;;;;5029290;28;20443;-52
2022/12/13 05:11:03;;;;;;;20.97;13.00;;;0.80;50.20;;;;;;5025041;28;20865;-54
2022/12/13 05:13:29;;;;;;;23.27;13.57;;;0.80;50.10;;;;;;5027094;28;21109;-53
2022/12/13 05:15:56;;;;;;;24.30;13.80;;;0.80;50.10;;;;;;5023275;28;20440;-53
2022/12/13 05:18:22;;;;;;;27.50;14.87;;;0.80;50.70;;;;;;5022434;28;20189;-49
2022/12/13 05:20:49;;;;;;;25.93;15.10;;;0.80;50.10;;;;;;5025418;28;20837;-51
2022/12/13 05:23:15;;;;;;;25.80;13.33;;;0.90;50.10;;;;;;5025269;28;20194;-52
2022/12/13 05:25:41;;;;;;;22.40;12.47;;;0.90;50.00;;;;;;5022626;28;20440;-53
2022/12/13 05:28:07;;;;;;;22.50;13.97;;;0.80;50.10;;;;;;5029814;28;20451;-53
2022/12/13 05:30:32;;;;;;;22.00;12.37;;;0.80;50.20;;;;;;5025989;28;20190;-49
2022/12/13 05:32:58;;;;;;;21.70;13.37;;;0.80;50.30;;;;;;5024944;28;20264;-53
2022/12/13 05:35:24;;;;;;;22.07;13.20;;;0.70;50.50;;;;;;5024197;28;20216;-52
2022/12/13 05:37:51;;;;;;;21.07;12.57;;;0.60;50.80;;;;;;5024819;28;20629;-52
2022/12/13 05:40:16;;;;;;;20.47;12.60;;;0.50;51.10;;;;;;5022159;28;20189;-52
2022/12/13 05:42:42;;;;;;;23.53;12.60;;;0.50;51.30;;;;;;5021764;28;20487;-50
2022/12/13 05:45:08;;;;;;;21.60;12.80;;;0.50;51.30;;;;;;5021994;28;20193;-51
2022/12/13 05:47:34;;;;;;;22.77;13.00;;;0.50;51.30;;;;;;5020339;28;20202;-49
2022/12/13 05:49:59;;;;;;;21.77;14.30;;;0.60;51.20;;;;;;5020442;28;20906;-52
2022/12/13 05:52:25;;;;;;;27.43;15.00;;;0.60;51.20;;;;;;5024774;28;20224;-51
2022/12/13 05:54:57;;;;;;;21.77;12.57;;;0.60;51.10;;;;;;5028576;28;20693;-51
2022/12/13 05:57:23;;;;;;;23.23;13.57;;;0.60;51.20;;;;;;5021133;28;20201;-49
2022/12/13 05:59:48;;;;;;;26.27;15.20;;;0.70;51.10;;;;;;5023333;28;20459;-49
2022/12/13 06:02:16;;;;;;;22.47;14.10;;;0.70;50.90;;;;;;5024121;28;20280;-48
2022/12/13 06:04:43;;;;;;;26.23;14.00;;;0.70;50.70;;;;;;5028923;28;20200;-49
2022/12/13 06:07:09;;;;;;;21.07;14.07;;;0.70;50.70;;;;;;5020545;28;20467;-49
2022/12/13 06:09:34;;;;;;;23.40;14.27;;;0.60;50.60;;;;;;5023475;28;20468;-49
2022/12/13 06:12:00;;;;;;;22.10;13.40;;;0.70;50.80;;;;;;5024888;28;22410;-50
2022/12/13 06:14:25;;;;;;;22.10;13.10;;;0.70;50.80;;;;;;5029908;28;20241;-49
2022/12/13 06:16:51;;;;;;;21.17;13.73;;;0.70;50.80;;;;;;5022597;28;20220;-50
2022/12/13 06:19:17;;;;;;;38.80;17.73;;;0.70;50.60;;;;;;5026938;28;20224;-50
2022/12/13 06:21:43;;;;;;;26.57;15.93;;;0.70;50.70;;;;;;5024914;28;20432;-49
2022/12/13 06:24:09;;;;;;;22.77;13.40;;;0.70;51.20;;;;;;5028723;28;20436;-50
2022/12/13 06:26:34;;;;;;;22.57;13.47;;;1.00;56.80;;;;;;5027308;28;20250;-48
2022/12/13 06:29:00;;;;;;;25.43;14.53;;;1.50;59.30;;;;;;5018693;28;20667;-48
2022/12/13 06:31:25;;;;;;;23.33;15.37;;;2.00;58.70;;;;;;5013754;28;20280;-50
2022/12/13 06:33:51;;;;;;;23.20;13.97;;;2.60;57.30;;;;;;5021798;28;20233;-53
2022/12/13 06:36:16;;;;;;;23.17;14.53;;;2.80;52.20;;;;;;5021782;28;20288;-49
2022/12/13 06:38:42;;;;;;;20.77;14.07;;;2.50;49.00;;;;;;5028510;28;20565;-51
2022/12/13 06:41:13;;;;;;;21.93;14.03;;;2.40;48.40;;;;;;5026478;28;20201;-51
2022/12/13 06:43:47;;;;;;;20.70;13.83;;;2.20;47.90;;;;;;5028241;28;20268;-51
2022/12/13 06:46:14;;;;;;;26.37;14.20;;;2.10;47.70;;;;;;5027382;28;20474;-54
2022/12/13 06:48:40;;;;;;;22.17;15.77;;;1.90;47.80;;;;;;5028099;28;20809;-52
2022/12/13 06:51:07;;;;;;;25.40;15.17;;;1.80;48.00;;;;;;5026846;28;20440;-50
2022/12/13 06:53:36;;;;;;;21.30;14.47;;;1.60;48.20;;;;;;5020846;28;20633;-51
2022/12/13 06:56:06;;;;;;;20.03;13.83;;;1.50;48.50;;;;;;5030002;28;20445;-53
2022/12/13 06:58:35;;;;;;;23.43;15.60;;;1.40;48.70;;;;;;5016453;28;20428;-51
2022/12/13 07:01:19;;;;;;;23.30;14.50;;;1.30;48.70;;;;;;5025050;28;20451;-52
2022/12/13 07:03:45;;;;;;;22.47;14.10;;;1.20;49.00;;;;;;5028796;28;20493;-50
2022/12/13 07:06:17;;;;;;;25.53;14.83;;;1.20;49.00;;;;;;5024116;28;20444;-51
2022/12/13 07:08:47;;;;;;;22.03;14.13;;;1.20;49.00;;;;;;5027469;28;20193;-52
2022/12/13 07:11:14;;;;;;;21.77;13.83;;;1.10;49.00;;;;;;5021228;28;20436;-53
2022/12/13 07:13:40;;;;;;;23.70;14.70;;;1.10;49.20;;;;;;5029078;28;20570;-49
2022/12/13 07:16:06;;;;;;;22.77;13.43;;;1.10;49.20;;;;;;5028637;28;21048;-52
2022/12/13 07:18:32;;;;;;;27.97;15.70;;;1.10;49.20;;;;;;5026020;28;20475;-51
2022/12/13 07:20:58;;;;;;;22.20;15.33;;;1.10;49.20;;;;;;5028821;28;20444;-51
2022/12/13 07:23:23;;;;;;;23.60;14.23;;;1.10;49.30;;;;;;5009659;28;20480;-52
2022/12/13 07:25:53;;;;;;;29.73;17.53;;;1.10;49.30;;;;;;5026260;28;20593;-53
2022/12/13 07:28:19;;;;;;;30.07;17.20;;;1.40;49.50;;;;;;5028827;28;20201;-53
2022/12/13 07:30:45;;;;;;;30.73;17.03;;;1.80;49.50;;;;;;5026822;28;20531;-51
2022/12/13 07:33:12;;;;;;;31.93;16.00;;;2.30;48.60;;;;;;5024883;28;20574;-49
2022/12/13 07:35:38;;;;;;;26.10;15.77;;;2.70;47.30;;;;;;5027196;28;20195;-53
2022/12/13 07:38:08;;;;;;;25.27;16.23;;;3.00;46.70;;;;;;5023557;28;20951;-50
2022/12/13 07:40:35;;;;;;;25.03;15.60;;;3.10;45.40;;;;;;5020220;28;21111;-52
2022/12/13 07:43:01;;;;;;;28.13;15.30;;;3.60;45.30;;;;;;5014320;28;20491;-50
2022/12/13 07:45:26;;;;;;;25.73;17.30;;;4.00;44.30;;;;;;5018128;28;20476;-57
2022/12/13 07:47:52;;;;;;;27.50;16.17;;;4.20;43.30;;;;;;5015277;28;20224;-51
2022/12/13 07:50:19;;;;;;;24.60;15.40;;;4.20;43.00;;;;;;5016804;28;20687;-50
2022/12/13 07:52:49;;;;;;;21.60;15.47;;;4.10;43.00;;;;;;5016010;28;20225;-51
2022/12/13 07:55:16;;;;;;;22.30;14.70;;;4.00;43.20;;;;;;5012728;28;20460;-49
2022/12/13 07:57:42;;;;;;;20.37;14.07;;;3.80;43.50;;;;;;5010627;28;20798;-53
2022/12/13 08:00:08;;;;;;;20.47;12.73;;;3.60;43.90;;;;;;4994819;28;20476;-57
2022/12/13 08:02:34;;;;;;;20.80;15.57;;;3.40;44.10;;;;;;4995571;28;20984;-56
2022/12/13 08:05:00;;;;;;;24.23;15.87;;;3.20;44.70;;;;;;5010796;28;20598;-53
2022/12/13 08:07:25;;;;;;;25.43;16.80;;;3.00;45.40;;;;;;5008634;28;20198;-54
2022/12/13 08:09:51;;;;;;;25.53;15.83;;;2.80;45.90;;;;;;4993383;28;20205;-56
2022/12/13 08:12:17;;;;;;;24.90;15.83;;;2.70;46.40;;;;;;4996094;28;20229;-57
2022/12/13 08:14:42;;;;;;;28.03;16.13;;;2.50;46.70;;;;;;5014661;28;20281;-57
2022/12/13 08:17:08;;;;;;;23.37;14.97;;;2.40;47.20;;;;;;5010862;28;20664;-57
2022/12/13 08:19:33;;;;;;;30.93;16.20;;;2.30;47.60;;;;;;5025976;28;20189;-56
2022/12/13 08:22:01;;;;;;;29.17;15.47;;;2.20;47.70;;;;;;5025369;28;20201;-57
2022/12/13 08:24:29;;;;;;;21.47;14.17;;;2.20;47.90;;;;;;5028436;28;20244;-56
2022/12/13 08:26:59;;;;;;;27.97;15.73;;;2.10;48.00;;;;;;5027900;28;20448;-57
2022/12/13 08:29:25;;;;;;;23.80;15.13;;;2.10;48.30;;;;;;5022206;28;20455;-56
2022/12/13 08:31:51;;;;;;;23.60;16.27;;;2.10;48.60;;;;;;5028746;28;20853;-56
2022/12/13 08:34:17;;;;;;;23.50;13.57;;;2.20;48.80;;;;;;5023351;28;20443;-56
2022/12/13 08:36:42;;;;;;;24.80;16.67;;;2.00;49.00;;;;;;5027505;28;20197;-56
2022/12/13 08:39:08;;;;;;;24.63;15.73;;;2.00;49.40;;;;;;5031174;28;20193;-56
2022/12/13 08:41:33;;;;;;;26.10;15.77;;;2.10;49.50;;;;;;5029990;28;20563;-56
2022/12/13 08:43:59;;;;;;;23.07;14.57;;;2.10;49.50;;;;;;5026008;28;20194;-56
2022/12/13 08:46:24;;;;;;;25.13;16.43;;;2.10;49.40;;;;;;5030878;28;20765;-56
2022/12/13 08:48:52;;;;;;;34.07;18.10;;;2.20;49.50;;;;;;5032482;28;20630;-56
2022/12/13 08:51:22;;;;;;;30.30;17.70;;;2.20;49.50;;;;;;5032739;28;20266;-56
2022/12/13 08:53:48;;;;;;;23.73;14.53;;;2.30;49.50;;;;;;5017133;28;20488;-55
2022/12/13 08:56:14;;;;;;;30.57;18.23;;;2.30;49.60;;;;;;5031004;28;20527;-56
2022/12/13 08:58:40;;;;;;;32.60;20.10;;;2.40;49.50;;;;;;5033256;28;20523;-56
2022/12/13 09:01:07;;;;;;;26.80;15.27;;;2.40;49.50;;;;;;5030759;28;20440;-56
2022/12/13 09:03:33;;;;;;;33.47;14.57;;;2.40;49.60;;;;;;5026236;28;20694;-56
2022/12/13 09:06:09;;;;;;;28.20;15.57;;;2.20;49.70;;;;;;5031484;28;20443;-56
2022/12/13 09:08:36;;;;;;;25.07;15.33;;;2.20;50.00;;;;;;5030159;28;20922;-56
2022/12/13 09:11:03;;;;;;;23.20;16.00;;;2.30;50.20;;;;;;5032690;28;20929;-56
2022/12/13 09:13:31;;;;;;;23.07;15.63;;;2.50;50.40;;;;;;5023063;28;20490;-57
2022/12/13 09:15:57;;;;;;;20.70;13.87;;;2.60;50.50;;;;;;5024654;28;20427;-56
2022/12/13 09:18:24;;;;;;;21.47;12.90;;;2.60;50.70;;;;;;5029368;28;20444;-57
2022/12/13 09:20:49;;;;;;;23.37;14.03;;;2.60;50.50;;;;;;5029764;28;20420;-56
2022/12/13 09:23:15;;;;;;;18.67;12.53;;;2.50;50.70;;;;;;5031012;28;20463;-56
2022/12/13 09:25:41;;;;;;;18.50;13.37;;;2.40;50.80;;;;;;5027786;28;20204;-56
2022/12/13 09:28:08;;;;;;;21.93;12.10;;;2.40;51.00;;;;;;5027702;28;20463;-56
2022/12/13 09:30:37;;;;;;;17.60;12.57;;;2.40;51.00;;;;;;5026256;28;20197;-56
2022/12/13 09:33:03;;;;;;;20.40;13.97;;;2.50;51.30;;;;;;5030444;28;20491;-58
2022/12/13 09:35:29;;;;;;;27.50;13.73;;;2.60;51.40;;;;;;5032151;28;20455;-56
2022/12/13 09:37:55;;;;;;;18.47;12.57;;;2.80;51.00;;;;;;5028377;28;20456;-57
2022/12/13 09:40:26;;;;;;;21.40;12.87;;;3.00;50.40;;;;;;5032134;28;20436;-57
2022/12/13 09:42:54;;;;;;;17.60;12.50;;;3.20;50.20;;;;;;5028652;28;20223;-56
2022/12/13 09:45:20;;;;;;;19.23;12.13;;;3.40;49.70;;;;;;5030138;28;20452;-57
2022/12/13 09:47:47;;;;;;;17.10;11.50;;;3.50;49.00;;;;;;5026609;28;20539;-56
2022/12/13 09:50:20;;;;;;;17.30;12.20;;;3.70;49.00;;;;;;5030194;28;20502;-56
2022/12/13 09:52:46;;;;;;;16.97;12.17;;;3.90;48.20;;;;;;5029572;28;20501;-56
2022/12/13 09:55:24;;;;;;;17.93;11.70;;;4.10;47.90;;;;;;5031623;28;20547;-57
2022/12/13 09:57:54;;;;;;;21.73;13.40;;;4.40;47.60;;;;;;5029106;28;20193;-56
2022/12/13 10:00:22;;;;;;;16.40;10.70;;;4.60;47.30;;;;;;5030593;28;20919;-56
2022/12/13 10:02:53;;;;;;;17.10;12.00;;;4.70;47.20;;;;;;5031421;28;20813;-57
2022/12/13 10:05:34;;;;;;;20.00;12.60;;;4.80;46.40;;;;;;5031784;28;20824;-58
2022/12/13 10:08:12;;;;;;;17.63;11.60;;;4.90;46.10;;;;;;5015653;28;20452;-57
2022/12/13 10:10:38;;;;;;;21.30;13.50;;;4.90;46.50;;;;;;5030144;28;20449;-57
2022/12/13 10:13:13;;;;;;;21.23;12.50;;;5.00;46.20;;;;;;5031527;28;20578;-57
2022/12/13 10:15:43;;;;;;;18.70;11.13;;;5.10;45.80;;;;;;5027881;28;20456;-56
2022/12/13 10:18:13;;;;;;;18.40;12.17;;;5.00;45.70;;;;;;5028770;28;20443;-57
2022/12/13 10:20:40;;;;;;;17.03;11.77;;;4.90;45.90;;;;;;5022371;28;20824;-57
2022/12/13 10:23:06;;;;;;;19.97;11.80;;;5.00;45.70;;;;;;5030558;28;20436;-57
2022/12/13 10:25:45;;;;;;;16.90;11.10;;;5.00;45.40;;;;;;5030959;28;20446;-58
2022/12/13 10:28:11;;;;;;;20.27;12.40;;;5.20;45.70;;;;;;5030623;28;20201;-58
2022/12/13 10:30:42;;;;;;;16.20;12.10;;;5.30;45.30;;;;;;5029969;28;20458;-58
2022/12/13 10:33:22;;;;;;;17.50;12.27;;;5.50;45.10;;;;;;5015273;28;20280;-57
2022/12/13 10:36:02;;;;;;;20.00;13.00;;;5.70;45.20;;;;;;5015783;28;20772;-58
2022/12/13 10:38:30;;;;;;;21.60;12.70;;;5.80;44.80;;;;;;5021372;28;20498;-57
2022/12/13 10:40:55;;;;;;;19.90;13.67;;;5.90;44.70;;;;;;5024239;28;20938;-57
2022/12/13 10:43:24;;;;;;;17.50;12.77;;;5.90;44.70;;;;;;5025384;28;20448;-57
2022/12/13 10:45:59;;;;;;;23.17;12.97;;;5.90;44.90;;;;;;5022151;28;20197;-57
2022/12/13 10:48:34;;;;;;;21.93;13.17;;;5.90;44.80;;;;;;5032087;28;20528;-57
2022/12/13 10:51:09;;;;;;;17.60;13.33;;;6.00;44.70;;;;;;5015587;28;20522;-57
2022/12/13 10:53:57;;;;;;;24.67;16.00;;;6.00;45.00;;;;;;5017175;28;20578;-58
2022/12/13 10:56:34;;;;;;;20.53;13.30;;;5.90;44.80;;;;;;5023314;28;20573;-57
2022/12/13 10:59:26;;;;;;;18.13;12.67;;;5.90;45.30;;;;;;5022062;28;20452;-56
2022/12/13 11:01:52;;;;;;;25.70;15.07;;;6.00;44.80;;;;;;5030725;28;20447;-57
2022/12/13 11:04:30;;;;;;;19.27;12.73;;;6.10;44.60;;;;;;5022700;28;20439;-57
2022/12/13 11:06:59;;;;;;;21.43;13.30;;;6.10;44.60;;;;;;5028534;28;20451;-57
2022/12/13 11:09:27;;;;;;;17.07;12.33;;;6.20;44.50;;;;;;5028571;28;22301;-57
2022/12/13 11:11:56;;;;;;;18.53;11.90;;;6.30;44.40;;;;;;5030562;28;20484;-57
2022/12/13 11:14:25;;;;;;;16.47;11.30;;;6.40;43.90;;;;;;5021700;28;20527;-56
2022/12/13 11:16:58;;;;;;;15.80;11.13;;;6.40;43.60;;;;;;5027038;28;20440;-56
2022/12/13 11:19:29;;;;;;;17.23;11.90;;;6.40;43.30;;;;;;5024853;28;20441;-57
2022/12/13 11:21:55;;;;;;;17.60;10.80;;;6.40;43.30;;;;;;5015715;28;20482;-56
2022/12/13 11:24:24;;;;;;;20.27;10.83;;;6.40;43.20;;;;;;5025526;28;20445;-56
2022/12/13 11:27:07;;;;;;;17.53;11.37;;;6.30;42.20;;;;;;5028042;28;20185;-57
2022/12/13 11:29:51;;;;;;;19.23;11.37;;;6.00;42.40;;;;;;5023647;28;20535;-57
2022/12/13 11:32:25;;;;;;;22.00;12.47;;;6.10;42.60;;;;;;5015823;28;20483;-56
2022/12/13 11:35:14;;;;;;;15.80;9.70;;;6.00;42.20;;;;;;5030054;28;20439;-57
2022/12/13 11:38:19;;;;;;;19.27;10.80;;;6.10;42.40;;;;;;5024394;28;20482;-56
2022/12/13 11:40:50;;;;;;;17.50;11.00;;;5.80;42.90;;;;;;4961903;28;20843;-58
2022/12/13 11:43:25;;;;;;;13.80;9.87;;;5.90;42.60;;;;;;4966331;28;20454;-56
2022/12/13 11:45:55;;;;;;;14.90;8.50;;;5.90;42.80;;;;;;5003100;28;20463;-59
2022/12/13 11:48:29;;;;;;;16.20;10.27;;;6.10;42.40;;;;;;5016005;28;20452;-55
2022/12/13 11:50:56;;;;;;;13.80;9.43;;;6.20;42.00;;;;;;5024076;28;20451;-55
2022/12/13 11:53:38;;;;;;;17.70;10.27;;;6.20;42.60;;;;;;5017035;28;20503;-57
2022/12/13 11:56:24;;;;;;;14.50;9.47;;;6.30;42.60;;;;;;5030012;28;20447;-57
2022/12/13 11:58:58;;;;;;;13.00;9.00;;;6.30;43.10;;;;;;5026479;28;20448;-58
2022/12/13 12:01:39;;;;;;;14.90;9.23;;;6.40;42.80;;;;;;5030280;28;20451;-57
2022/12/13 12:04:16;;;;;;;14.00;9.10;;;6.50;42.60;;;;;;5027096;28;20458;-58
2022/12/13 12:07:00;;;;;;;13.63;10.30;;;6.60;42.20;;;;;;5030823;28;20518;-58
2022/12/13 12:09:27;;;;;;;14.57;9.03;;;6.70;41.30;;;;;;5030819;28;20444;-54
2022/12/13 12:11:59;;;;;;;13.87;9.23;;;6.70;41.80;;;;;;5024102;28;20459;-55
2022/12/13 12:14:47;;;;;;;15.00;9.10;;;6.70;41.40;;;;;;5027717;28;20863;-54
2022/12/13 12:17:15;;;;;;;12.33;8.47;;;6.30;40.70;;;;;;5027499;28;20459;-56
2022/12/13 12:19:45;;;;;;;12.17;8.73;;;6.30;40.90;;;;;;5027017;28;20489;-55
2022/12/13 12:22:29;;;;;;;13.23;8.73;;;6.30;41.00;;;;;;5028964;28;20960;-56
2022/12/13 12:25:20;;;;;;;12.67;8.77;;;6.40;40.90;;;;;;5011692;28;20459;-55
2022/12/13 12:27:54;;;;;;;11.77;8.07;;;6.40;40.70;;;;;;5007111;28;20454;-56
2022/12/13 12:30:38;;;;;;;15.27;9.00;;;6.10;40.60;;;;;;5009760;28;20451;-55
2022/12/13 12:33:29;;;;;;;11.37;8.00;;;6.00;40.80;;;;;;5026027;28;21005;-54
2022/12/13 12:36:05;;;;;;;13.07;8.37;;;6.00;41.20;;;;;;4997982;28;20558;-56
2022/12/13 12:38:51;;;;;;;10.27;7.83;;;6.30;41.00;;;;;;5010558;28;20896;-55
2022/12/13 12:41:35;;;;;;;14.00;8.40;;;6.00;40.60;;;;;;5012123;28;20488;-54
2022/12/13 12:44:13;;;;;;;13.60;8.90;;;5.90;41.00;;;;;;5010439;28;20450;-55
2022/12/13 12:46:41;;;;;;;11.03;8.00;;;5.80;40.80;;;;;;5012598;28;20452;-55
2022/12/13 12:49:12;;;;;;;15.73;8.23;;;5.80;41.50;;;;;;5024466;28;20505;-55
2022/12/13 12:51:50;;;;;;;10.17;6.90;;;6.10;41.40;;;;;;5030838;28;20440;-55
2022/12/13 12:54:40;;;;;;;13.47;9.00;;;6.30;41.40;;;;;;5030244;28;20479;-56
2022/12/13 12:57:28;;;;;;;14.80;8.00;;;6.30;40.80;;;;;;5031714;28;20506;-55
2022/12/13 13:00:03;;;;;;;10.63;8.37;;;6.10;40.90;;;;;;5024240;28;20459;-55
2022/12/13 13:02:48;;;;;;;13.37;8.17;;;6.00;41.40;;;;;;5029636;28;20921;-54